Time,TemperatureF,DewpointF,PressureIn,WindDirection,WindDirectionDegrees,WindSpeedMPH,WindSpeedGustMPH,Humidity,HourlyPrecipIn,Conditions,Clouds,dailyrainin,SoftwareType,DateUTC
2013-06-29 00:01:00,69.2,51.3,30.16,SW,236,4.0,5.0,53,0.00,CLR,CLR,0.00,WeatherDisplay:10.34,2013-06-29 06:01:00,
2013-06-29 00:06:00,68.9,50.5,30.16,SW,236,2.0,2.0,52,0.00,CLR,CLR,0.00,WeatherDisplay:10.34,2013-06-29 06:06:00,
2013-06-29 00:11:00,68.8,49.9,30.16,SW,236,0.0,0.0,51,0.00,CLR,CLR,0.00,WeatherDisplay:10.34,2013-06-29 06:11:00,
2013-06-29 00:16:00,68.4,51.6,30.16,SW,236,2.0,2.0,55,0.00,CLR,CLR,0.00,WeatherDisplay:10.34,2013-06-29 06:16:00,
2013-06-29 00:21:00,67.7,51.4,30.16,SW,236,4.0,4.0,56,0.00,CLR,CLR,0.00,WeatherDisplay:10.34,2013-06-29 06:21:00,
2013-06-29 00:26:00,67.2,51.4,30.16,SW,236,2.0,2.0,57,0.00,CLR,CLR,0.00,WeatherDisplay:10.34,2013-06-29 06:26:00,
2013-06-29 00:31:00,66.7,51.5,30.16,SW,236,0.0,0.0,58,0.00,CLR,CLR,0.00,WeatherDisplay:10.34,2013-06-29 06:31:00,
2013-06-29 00:36:00,66.0,52.2,30.16,SW,236,1.0,2.0,61,0.00,CLR,CLR,0.00,WeatherDisplay:10.34,2013-06-29 06:36:00,
2013-06-29 00:41:00,65.2,52.7,30.16,SW,233,3.0,3.0,64,0.00,CLR,CLR,0.00,WeatherDisplay:10.34,2013-06-29 06:41:00,
2013-06-29 00:46:00,64.7,52.7,30.16,SW,233,0.0,1.0,65,0.00,CLR,CLR,0.00,WeatherDisplay:10.34,2013-06-29 06:46:00,
2013-06-29 00:51:00,64.2,52.6,30.16,SW,233,0.0,0.0,66,0.00,CLR,CLR,0.00,WeatherDisplay:10.34,2013-06-29 06:51:00,
2013-06-29 00:56:00,63.8,51.8,30.16,SSE,163,4.0,5.0,65,0.00,CLR,CLR,0.00,WeatherDisplay:10.34,2013-06-29 06:56:00,
2013-06-29 01:01:00,63.6,52.0,30.16,SSE,164,4.0,4.0,66,0.00,CLR,CLR,0.00,WeatherDisplay:10.34,2013-06-29 07:01:00,
2013-06-29 01:06:00,63.4,51.4,30.16,WSW,252,1.0,3.0,65,0.00,CLR,CLR,0.00,WeatherDisplay:10.34,2013-06-29 07:06:00,
2013-06-29 01:11:00,63.8,50.5,30.16,West,267,3.0,5.0,62,0.00,CLR,CLR,0.00,WeatherDisplay:10.34,2013-06-29 07:11:00,
2013-06-29 01:16:00,64.9,50.2,30.16,West,269,4.0,5.0,59,0.00,CLR,CLR,0.00,WeatherDisplay:10.34,2013-06-29 07:16:00,
2013-06-29 01:21:00,66.1,50.4,30.16,West,273,3.0,3.0,57,0.00,CLR,CLR,0.00,WeatherDisplay:10.34,2013-06-29 07:21:00,
2013-06-29 01:26:00,66.8,50.1,30.16,West,264,2.0,2.0,55,0.00,CLR,CLR,0.00,WeatherDisplay:10.34,2013-06-29 07:26:00,
2013-06-29 01:31:00,67.2,51.0,30.16,WSW,256,1.0,2.0,56,0.00,CLR,CLR,0.00,WeatherDisplay:10.34,2013-06-29 07:31:00,
2013-06-29 01:36:00,67.1,51.4,30.16,ESE,114,0.0,1.0,57,0.00,CLR,CLR,0.00,WeatherDisplay:10.34,2013-06-29 07:36:00,
2013-06-29 01:41:00,67.0,51.3,30.16,ESE,114,0.0,0.0,57,0.00,CLR,CLR,0.00,WeatherDisplay:10.34,2013-06-29 07:41:00,
2013-06-29 01:46:00,66.9,51.2,30.16,ESE,113,0.0,1.0,57,0.00,CLR,CLR,0.00,WeatherDisplay:10.34,2013-06-29 07:46:00,
2013-06-29 01:51:00,66.6,50.9,30.16,ESE,113,0.0,0.0,57,0.00,CLR,CLR,0.00,WeatherDisplay:10.34,2013-06-29 07:51:00,
2013-06-29 01:56:00,66.3,50.6,30.16,ESE,113,0.0,0.0,57,0.00,CLR,CLR,0.00,WeatherDisplay:10.34,2013-06-29 07:56:00,
2013-06-29 02:01:00,65.9,51.2,30.16,ESE,114,1.0,2.0,59,0.00,CLR,CLR,0.00,WeatherDisplay:10.34,2013-06-29 08:01:00,
2013-06-29 02:06:00,65.5,51.7,30.16,ESE,113,0.0,1.0,61,0.00,CLR,CLR,0.00,WeatherDisplay:10.34,2013-06-29 08:06:00,
2013-06-29 02:11:00,64.8,51.9,30.16,ESE,114,3.0,3.0,63,0.00,CLR,CLR,0.00,WeatherDisplay:10.34,2013-06-29 08:11:00,
2013-06-29 02:16:00,64.4,51.1,30.16,ESE,114,2.0,2.0,62,0.00,CLR,CLR,0.00,WeatherDisplay:10.34,2013-06-29 08:16:00,
2013-06-29 02:21:00,64.0,50.7,30.16,WSW,258,3.0,3.0,62,0.00,CLR,CLR,0.00,WeatherDisplay:10.34,2013-06-29 08:21:00,
2013-06-29 02:26:00,63.7,50.9,30.16,WSW,257,0.0,1.0,63,0.00,CLR,CLR,0.00,WeatherDisplay:10.34,2013-06-29 08:26:00,
2013-06-29 02:31:00,63.3,50.1,30.16,WSW,258,0.0,0.0,62,0.00,CLR,CLR,0.00,WeatherDisplay:10.34,2013-06-29 08:31:00,
2013-06-29 02:36:00,63.0,50.2,30.16,WSW,257,0.0,0.0,63,0.00,CLR,CLR,0.00,WeatherDisplay:10.34,2013-06-29 08:36:00,
2013-06-29 02:41:00,62.8,50.4,30.16,WSW,258,0.0,0.0,64,0.00,CLR,CLR,0.00,WeatherDisplay:10.34,2013-06-29 08:41:00,
2013-06-29 02:46:00,62.5,51.0,30.16,WSW,257,0.0,0.0,66,0.00,CLR,CLR,0.00,WeatherDisplay:10.34,2013-06-29 08:46:00,
2013-06-29 02:51:00,62.2,50.7,30.16,SSE,155,2.0,2.0,66,0.00,CLR,CLR,0.00,WeatherDisplay:10.34,2013-06-29 08:51:00,
2013-06-29 02:56:00,61.9,50.8,30.16,SSE,155,3.0,3.0,67,0.00,CLR,CLR,0.00,WeatherDisplay:10.34,2013-06-29 08:56:00,
2013-06-29 03:01:00,61.6,50.9,30.16,SSE,155,1.0,2.0,68,0.00,CLR,CLR,0.00,WeatherDisplay:10.34,2013-06-29 09:01:00,
2013-06-29 03:06:00,61.3,50.6,30.16,SW,232,4.0,4.0,68,0.00,CLR,CLR,0.00,WeatherDisplay:10.34,2013-06-29 09:06:00,
2013-06-29 03:11:00,61.3,50.6,30.16,SW,232,0.0,1.0,68,0.00,CLR,CLR,0.00,WeatherDisplay:10.34,2013-06-29 09:11:00,
2013-06-29 03:16:00,61.4,51.1,30.16,SW,232,1.0,2.0,69,0.00,CLR,CLR,0.00,WeatherDisplay:10.34,2013-06-29 09:16:00,
2013-06-29 03:21:00,61.6,50.9,30.16,West,265,3.0,3.0,68,0.00,CLR,CLR,0.00,WeatherDisplay:10.34,2013-06-29 09:21:00,
2013-06-29 03:26:00,62.0,51.3,30.16,West,265,0.0,1.0,68,0.00,CLR,CLR,0.00,WeatherDisplay:10.34,2013-06-29 09:26:00,
2013-06-29 03:31:00,62.3,51.2,30.17,West,265,0.0,1.0,67,0.00,CLR,CLR,0.00,WeatherDisplay:10.34,2013-06-29 09:31:00,
2013-06-29 03:36:00,62.6,51.5,30.17,West,265,1.0,2.0,67,0.00,CLR,CLR,0.00,WeatherDisplay:10.34,2013-06-29 09:36:00,
2013-06-29 03:41:00,63.1,52.0,30.17,WNW,298,1.0,2.0,67,0.00,CLR,CLR,0.00,WeatherDisplay:10.34,2013-06-29 09:41:00,
2013-06-29 03:46:00,63.3,51.7,30.17,WNW,298,0.0,1.0,66,0.00,CLR,CLR,0.00,WeatherDisplay:10.34,2013-06-29 09:46:00,
2013-06-29 03:51:00,63.6,51.2,30.16,WNW,298,0.0,1.0,64,0.00,CLR,CLR,0.00,WeatherDisplay:10.34,2013-06-29 09:51:00,
2013-06-29 03:56:00,63.7,51.7,30.16,WNW,298,0.0,1.0,65,0.00,CLR,CLR,0.00,WeatherDisplay:10.34,2013-06-29 09:56:00,
2013-06-29 04:01:00,63.6,51.2,30.16,WNW,298,0.0,1.0,64,0.00,CLR,CLR,0.00,WeatherDisplay:10.34,2013-06-29 10:01:00,
2013-06-29 04:06:00,63.5,51.5,30.16,WNW,298,2.0,2.0,65,0.00,CLR,CLR,0.00,WeatherDisplay:10.34,2013-06-29 10:06:00,
2013-06-29 04:11:00,62.9,51.0,30.17,SE,124,3.0,3.0,65,0.00,CLR,CLR,0.00,WeatherDisplay:10.34,2013-06-29 10:11:00,
2013-06-29 04:16:00,62.3,51.6,30.17,ESE,107,2.0,2.0,68,0.00,CLR,CLR,0.00,WeatherDisplay:10.34,2013-06-29 10:16:00,
2013-06-29 04:21:00,61.9,51.2,30.17,ESE,108,4.0,4.0,68,0.00,CLR,CLR,0.00,WeatherDisplay:10.34,2013-06-29 10:21:00,
2013-06-29 04:26:00,61.6,51.3,30.17,SW,223,1.0,0.0,69,0.00,CLR,CLR,0.00,WeatherDisplay:10.34,2013-06-29 10:26:00,
2013-06-29 04:31:00,61.5,51.6,30.17,NW,319,1.0,0.0,70,0.00,CLR,CLR,0.00,WeatherDisplay:10.34,2013-06-29 10:31:00,
2013-06-29 04:36:00,61.5,51.6,30.17,SSE,153,3.0,3.0,70,0.00,CLR,CLR,0.00,WeatherDisplay:10.34,2013-06-29 10:36:00,
2013-06-29 04:41:00,61.4,51.5,30.18,SSE,155,4.0,4.0,70,0.00,CLR,CLR,0.00,WeatherDisplay:10.34,2013-06-29 10:41:00,
2013-06-29 04:46:00,61.2,51.3,30.18,SSE,155,0.0,1.0,70,0.00,CLR,CLR,0.00,WeatherDisplay:10.34,2013-06-29 10:46:00,
2013-06-29 04:51:00,61.1,51.2,30.18,SSE,155,1.0,1.0,70,0.00,CLR,CLR,0.00,WeatherDisplay:10.34,2013-06-29 10:51:00,
2013-06-29 04:56:00,61.0,51.1,30.18,SSE,155,0.0,2.0,70,0.00,CLR,CLR,0.00,WeatherDisplay:10.34,2013-06-29 10:56:00,
2013-06-29 05:01:00,60.9,51.4,30.18,SSE,155,2.0,3.0,71,0.00,OVC,OVC,0.00,WeatherDisplay:10.34,2013-06-29 11:01:00,
2013-06-29 05:06:00,60.8,51.3,30.18,SSE,155,0.0,0.0,71,0.00,OVC,OVC,0.00,WeatherDisplay:10.34,2013-06-29 11:06:00,
2013-06-29 05:11:00,60.6,51.1,30.18,SSE,154,0.0,1.0,71,0.00,OVC,OVC,0.00,WeatherDisplay:10.34,2013-06-29 11:11:00,
2013-06-29 05:16:00,60.3,51.2,30.18,SE,137,2.0,2.0,72,0.00,OVC,OVC,0.00,WeatherDisplay:10.34,2013-06-29 11:16:00,
2013-06-29 05:21:00,60.2,51.1,30.18,SE,137,1.0,1.0,72,0.00,OVC,OVC,0.00,WeatherDisplay:10.34,2013-06-29 11:21:00,
2013-06-29 05:26:00,60.1,51.4,30.18,SE,137,3.0,3.0,73,0.00,OVC,OVC,0.00,WeatherDisplay:10.34,2013-06-29 11:26:00,
2013-06-29 05:31:00,59.9,50.5,30.18,SE,137,1.0,2.0,71,0.00,OVC,OVC,0.00,WeatherDisplay:10.34,2013-06-29 11:31:00,
2013-06-29 05:36:00,59.7,51.0,30.18,SE,138,1.0,1.0,73,0.00,OVC,OVC,0.00,WeatherDisplay:10.34,2013-06-29 11:36:00,
2013-06-29 05:41:00,59.6,51.3,30.18,SE,138,0.0,0.0,74,0.00,CLR,CLR,0.00,WeatherDisplay:10.34,2013-06-29 11:41:00,
2013-06-29 05:46:00,59.5,51.6,30.18,SE,138,0.0,0.0,75,0.00,BKN,BKN,0.00,WeatherDisplay:10.34,2013-06-29 11:46:00,
2013-06-29 05:51:00,59.4,51.5,30.18,SE,138,0.0,0.0,75,0.00,BKN,BKN,0.00,WeatherDisplay:10.34,2013-06-29 11:51:00,
2013-06-29 05:56:00,59.3,51.0,30.18,WNW,282,0.0,0.0,74,0.00,OVC,OVC,0.00,WeatherDisplay:10.34,2013-06-29 11:56:00,
2013-06-29 06:01:00,59.3,51.0,30.18,WNW,282,0.0,0.0,74,0.00,OVC,OVC,0.00,WeatherDisplay:10.34,2013-06-29 12:01:00,
2013-06-29 06:06:00,59.1,50.8,30.18,WNW,282,0.0,0.0,74,0.00,OVC,OVC,0.00,WeatherDisplay:10.34,2013-06-29 12:06:00,
2013-06-29 06:11:00,59.0,51.1,30.17,WNW,282,0.0,0.0,75,0.00,OVC,OVC,0.00,WeatherDisplay:10.34,2013-06-29 12:11:00,
2013-06-29 06:16:00,59.0,51.1,30.18,West,281,1.0,2.0,75,0.00,OVC,OVC,0.00,WeatherDisplay:10.34,2013-06-29 12:16:00,
2013-06-29 06:21:00,59.0,51.4,30.18,West,281,0.0,0.0,76,0.00,OVC,OVC,0.00,WeatherDisplay:10.34,2013-06-29 12:21:00,
2013-06-29 06:26:00,59.0,51.8,30.18,West,281,0.0,0.0,77,0.00,OVC,OVC,0.00,WeatherDisplay:10.34,2013-06-29 12:26:00,
2013-06-29 06:31:00,59.2,51.6,30.18,WNW,282,0.0,0.0,76,0.00,SCT,SCT,0.00,WeatherDisplay:10.34,2013-06-29 12:31:00,
2013-06-29 06:36:00,59.5,52.3,30.18,WSW,244,3.0,3.0,77,0.00,FEW,FEW,0.00,WeatherDisplay:10.34,2013-06-29 12:36:00,
2013-06-29 06:41:00,59.9,53.0,30.19,SSW,205,1.0,2.0,78,0.00,CLR,CLR,0.00,WeatherDisplay:10.34,2013-06-29 12:41:00,
2013-06-29 06:46:00,60.3,53.4,30.19,SSW,205,0.0,1.0,78,0.00,CLR,CLR,0.00,WeatherDisplay:10.34,2013-06-29 12:46:00,
2013-06-29 06:51:00,60.8,53.9,30.19,SSW,205,2.0,2.0,78,0.00,CLR,CLR,0.00,WeatherDisplay:10.34,2013-06-29 12:51:00,
2013-06-29 06:56:00,61.5,54.6,30.19,SSW,205,2.0,2.0,78,0.00,CLR,CLR,0.00,WeatherDisplay:10.34,2013-06-29 12:56:00,
2013-06-29 07:01:00,62.2,54.5,30.19,SSW,205,4.0,4.0,76,0.00,CLR,CLR,0.00,WeatherDisplay:10.34,2013-06-29 13:01:00,
2013-06-29 07:06:00,62.8,54.8,30.19,SW,225,3.0,3.0,75,0.00,CLR,CLR,0.00,WeatherDisplay:10.34,2013-06-29 13:06:00,
2013-06-29 07:11:00,63.5,55.4,30.19,SW,219,2.0,3.0,75,0.00,CLR,CLR,0.00,WeatherDisplay:10.34,2013-06-29 13:11:00,
2013-06-29 07:16:00,64.3,55.5,30.19,SW,218,2.0,2.0,73,0.00,CLR,CLR,0.00,WeatherDisplay:10.34,2013-06-29 13:16:00,
2013-06-29 07:21:00,65.2,55.9,30.19,SW,219,4.0,4.0,72,0.00,CLR,CLR,0.00,WeatherDisplay:10.34,2013-06-29 13:21:00,
2013-06-29 07:26:00,65.8,55.7,30.19,SW,218,1.0,1.0,70,0.00,CLR,CLR,0.00,WeatherDisplay:10.34,2013-06-29 13:26:00,
2013-06-29 07:31:00,66.6,55.7,30.19,SW,219,3.0,3.0,68,0.00,CLR,CLR,0.00,WeatherDisplay:10.34,2013-06-29 13:31:00,
2013-06-29 07:36:00,67.4,56.1,30.19,SW,215,4.0,4.0,67,0.00,CLR,CLR,0.00,WeatherDisplay:10.34,2013-06-29 13:36:00,
2013-06-29 07:41:00,67.9,55.3,30.19,SW,214,4.0,4.0,64,0.00,CLR,CLR,0.00,WeatherDisplay:10.34,2013-06-29 13:41:00,
2013-06-29 07:46:00,68.5,55.0,30.19,SW,214,2.0,2.0,62,0.00,CLR,CLR,0.00,WeatherDisplay:10.34,2013-06-29 13:46:00,
2013-06-29 07:51:00,68.9,54.4,30.19,SW,214,1.0,1.0,60,0.00,CLR,CLR,0.00,WeatherDisplay:10.34,2013-06-29 13:51:00,
2013-06-29 07:56:00,69.3,54.8,30.19,SW,214,2.0,2.0,60,0.00,CLR,CLR,0.00,WeatherDisplay:10.34,2013-06-29 13:56:00,
2013-06-29 08:01:00,69.6,54.2,30.19,SW,214,1.0,1.0,58,0.00,CLR,CLR,0.00,WeatherDisplay:10.34,2013-06-29 14:01:00,
2013-06-29 08:06:00,70.0,54.5,30.19,SW,214,2.0,2.0,58,0.00,CLR,CLR,0.00,WeatherDisplay:10.34,2013-06-29 14:06:00,
2013-06-29 08:11:00,70.5,55.0,30.18,SW,214,3.0,3.0,58,0.00,CLR,CLR,0.00,WeatherDisplay:10.34,2013-06-29 14:11:00,
2013-06-29 08:16:00,71.0,55.9,30.18,SW,214,1.0,2.0,59,0.00,CLR,CLR,0.00,WeatherDisplay:10.34,2013-06-29 14:16:00,
2013-06-29 08:21:00,71.4,55.4,30.18,SW,230,2.0,3.0,57,0.00,CLR,CLR,0.00,WeatherDisplay:10.34,2013-06-29 14:21:00,
2013-06-29 08:26:00,72.0,57.4,30.18,SW,230,0.0,2.0,60,0.00,CLR,CLR,0.00,WeatherDisplay:10.34,2013-06-29 14:26:00,
2013-06-29 08:31:00,72.6,57.0,30.18,NNW,336,4.0,5.0,58,0.00,CLR,CLR,0.00,WeatherDisplay:10.34,2013-06-29 14:31:00,
2013-06-29 08:36:00,73.1,57.4,30.18,NW,318,2.0,3.0,58,0.00,CLR,CLR,0.00,WeatherDisplay:10.34,2013-06-29 14:36:00,
2013-06-29 08:41:00,73.5,55.8,30.18,NW,315,5.0,7.0,54,0.00,CLR,CLR,0.00,WeatherDisplay:10.34,2013-06-29 14:41:00,
2013-06-29 08:46:00,73.9,56.2,30.18,NNW,337,5.0,7.0,54,0.00,CLR,CLR,0.00,WeatherDisplay:10.34,2013-06-29 14:46:00,
2013-06-29 08:51:00,74.1,55.9,30.17,NW,326,6.0,7.0,53,0.00,CLR,CLR,0.00,WeatherDisplay:10.34,2013-06-29 14:51:00,
2013-06-29 08:56:00,74.5,57.3,30.17,WNW,284,1.0,2.0,55,0.00,CLR,CLR,0.00,WeatherDisplay:10.34,2013-06-29 14:56:00,
2013-06-29 09:01:00,74.8,56.0,30.18,NNW,342,3.0,5.0,52,0.00,CLR,CLR,0.00,WeatherDisplay:10.34,2013-06-29 15:01:00,
2013-06-29 09:06:00,75.2,56.4,30.18,NW,309,4.0,7.0,52,0.00,CLR,CLR,0.00,WeatherDisplay:10.34,2013-06-29 15:06:00,
2013-06-29 09:11:00,75.6,56.7,30.17,NW,313,4.0,4.0,52,0.00,CLR,CLR,0.00,WeatherDisplay:10.34,2013-06-29 15:11:00,
2013-06-29 09:16:00,76.0,55.5,30.17,West,274,8.0,10.0,49,0.00,CLR,CLR,0.00,WeatherDisplay:10.34,2013-06-29 15:16:00,
2013-06-29 09:19:00,76.1,56.1,30.17,WNW,286,5.0,8.0,50,0.00,CLR,CLR,0.00,WeatherDisplay:10.34,2013-06-29 15:19:00,
2013-06-29 09:25:00,76.6,57.1,30.17,WNW,299,4.0,4.0,51,0.00,CLR,CLR,0.00,WeatherDisplay:10.34,2013-06-29 15:25:00,
2013-06-29 09:30:00,76.9,55.7,30.17,West,272,8.0,8.0,48,0.00,CLR,CLR,0.00,WeatherDisplay:10.34,2013-06-29 15:30:00,
2013-06-29 09:35:00,77.3,57.2,30.17,NNW,338,3.0,3.0,50,0.00,CLR,CLR,0.00,WeatherDisplay:10.34,2013-06-29 15:35:00,
2013-06-29 09:40:00,77.7,57.0,30.17,NNW,330,4.0,8.0,49,0.00,CLR,CLR,0.00,WeatherDisplay:10.34,2013-06-29 15:40:00,
2013-06-29 09:45:00,78.2,56.3,30.17,NNW,330,5.0,5.0,47,0.00,CLR,CLR,0.00,WeatherDisplay:10.34,2013-06-29 15:45:00,
2013-06-29 09:50:00,78.4,56.5,30.16,NNW,331,7.0,7.0,47,0.00,CLR,CLR,0.00,WeatherDisplay:10.34,2013-06-29 15:50:00,
2013-06-29 09:55:00,78.5,55.4,30.16,West,277,3.0,9.0,45,0.00,CLR,CLR,0.00,WeatherDisplay:10.34,2013-06-29 15:55:00,
2013-06-29 10:00:00,78.8,56.3,30.16,WNW,296,3.0,3.0,46,0.00,CLR,CLR,0.00,WeatherDisplay:10.34,2013-06-29 16:00:00,
2013-06-29 10:05:00,79.2,56.0,30.16,West,280,3.0,3.0,45,0.00,CLR,CLR,0.00,WeatherDisplay:10.34,2013-06-29 16:05:00,
2013-06-29 10:10:00,79.5,56.3,30.16,NNW,327,6.0,8.0,45,0.00,CLR,CLR,0.00,WeatherDisplay:10.34,2013-06-29 16:10:00,
2013-06-29 10:15:00,80.0,57.4,30.16,NNW,342,6.0,6.0,46,0.00,CLR,CLR,0.00,WeatherDisplay:10.34,2013-06-29 16:15:00,
2013-06-29 10:20:00,80.1,56.2,30.15,NNW,332,5.0,7.0,44,0.00,FEW,FEW,0.00,WeatherDisplay:10.34,2013-06-29 16:20:00,
2013-06-29 10:25:00,80.3,55.8,30.15,NNW,340,7.0,8.0,43,0.00,FEW,FEW,0.00,WeatherDisplay:10.34,2013-06-29 16:25:00,
2013-06-29 10:30:00,80.5,55.3,30.15,North,360,2.0,2.0,42,0.00,FEW,FEW,0.00,WeatherDisplay:10.34,2013-06-29 16:30:00,
2013-06-29 10:35:00,80.9,58.2,30.15,WNW,282,3.0,3.0,46,0.00,FEW,FEW,0.00,WeatherDisplay:10.34,2013-06-29 16:35:00,
2013-06-29 10:40:00,81.2,55.9,30.15,WNW,298,3.0,3.0,42,0.00,FEW,FEW,0.00,WeatherDisplay:10.34,2013-06-29 16:40:00,
2013-06-29 10:45:00,81.6,56.9,30.15,North,355,6.0,6.0,43,0.00,FEW,FEW,0.00,WeatherDisplay:10.34,2013-06-29 16:45:00,
2013-06-29 10:50:00,81.9,58.5,30.15,NW,322,6.0,6.0,45,0.00,FEW,FEW,0.00,WeatherDisplay:10.34,2013-06-29 16:50:00,
2013-06-29 10:55:00,82.3,58.2,30.15,North,349,5.0,5.0,44,0.00,FEW,FEW,0.00,WeatherDisplay:10.34,2013-06-29 16:55:00,
2013-06-29 11:00:00,82.9,58.1,30.15,NW,311,3.0,3.0,43,0.00,FEW,FEW,0.00,WeatherDisplay:10.34,2013-06-29 17:00:00,
2013-06-29 11:05:00,83.0,57.5,30.15,West,265,5.0,7.0,42,0.00,FEW,FEW,0.00,WeatherDisplay:10.34,2013-06-29 17:05:00,
2013-06-29 11:10:00,83.2,57.7,30.15,West,262,4.0,4.0,42,0.00,FEW,FEW,0.00,WeatherDisplay:10.34,2013-06-29 17:10:00,
2013-06-29 11:15:00,83.6,56.7,30.16,West,276,7.0,7.0,40,0.00,FEW,FEW,0.00,WeatherDisplay:10.34,2013-06-29 17:15:00,
2013-06-29 11:20:00,83.9,57.0,30.16,NNW,346,5.0,5.0,40,0.00,FEW,FEW,0.00,WeatherDisplay:10.34,2013-06-29 17:20:00,
2013-06-29 11:25:00,84.1,55.7,30.15,NNW,346,4.0,5.0,38,0.00,FEW,FEW,0.00,WeatherDisplay:10.34,2013-06-29 17:25:00,
2013-06-29 11:30:00,84.5,56.8,30.15,WSW,254,2.0,7.0,39,0.00,FEW,FEW,0.00,WeatherDisplay:10.34,2013-06-29 17:30:00,
2013-06-29 11:35:00,84.9,56.5,30.15,WSW,257,4.0,4.0,38,0.00,FEW,FEW,0.00,WeatherDisplay:10.34,2013-06-29 17:35:00,
2013-06-29 11:40:00,85.1,56.6,30.14,WNW,296,3.0,3.0,38,0.00,FEW,FEW,0.00,WeatherDisplay:10.34,2013-06-29 17:40:00,
2013-06-29 11:45:00,85.3,56.8,30.14,ENE,66,6.0,6.0,38,0.00,FEW,FEW,0.00,WeatherDisplay:10.34,2013-06-29 17:45:00,
2013-06-29 11:50:00,85.3,57.5,30.14,WNW,287,3.0,5.0,39,0.00,FEW,FEW,0.00,WeatherDisplay:10.34,2013-06-29 17:50:00,
2013-06-29 11:55:00,85.7,55.7,30.14,WSW,242,0.0,1.0,36,0.00,FEW,FEW,0.00,WeatherDisplay:10.34,2013-06-29 17:55:00,
2013-06-29 12:00:00,86.3,57.0,30.14,NW,317,3.0,3.0,37,0.00,FEW,FEW,0.00,WeatherDisplay:10.34,2013-06-29 18:00:00,
2013-06-29 12:05:00,86.7,57.3,30.14,WNW,287,3.0,3.0,37,0.00,FEW,FEW,0.00,WeatherDisplay:10.34,2013-06-29 18:05:00,
2013-06-29 12:10:00,86.8,55.9,30.14,NNW,348,8.0,8.0,35,0.00,FEW,FEW,0.00,WeatherDisplay:10.34,2013-06-29 18:10:00,
2013-06-29 12:15:00,86.7,55.8,30.15,NNE,19,5.0,5.0,35,0.00,FEW,FEW,0.00,WeatherDisplay:10.34,2013-06-29 18:15:00,
2013-06-29 12:20:00,87.0,54.4,30.15,SSE,152,3.0,3.0,33,0.00,FEW,FEW,0.00,WeatherDisplay:10.34,2013-06-29 18:20:00,
2013-06-29 12:25:00,87.2,54.6,30.13,NNE,32,0.0,1.0,33,0.00,FEW,FEW,0.00,WeatherDisplay:10.34,2013-06-29 18:25:00,
2013-06-29 12:30:00,88.0,55.3,30.13,NE,49,5.0,5.0,33,0.00,FEW,FEW,0.00,WeatherDisplay:10.34,2013-06-29 18:30:00,
2013-06-29 12:35:00,88.1,54.5,30.13,East,90,3.0,3.0,32,0.00,FEW,FEW,0.00,WeatherDisplay:10.34,2013-06-29 18:35:00,
2013-06-29 12:40:00,88.2,54.6,30.13,East,101,0.0,0.0,32,0.00,FEW,FEW,0.00,WeatherDisplay:10.34,2013-06-29 18:40:00,
2013-06-29 12:45:00,88.4,58.1,30.13,WNW,292,3.0,3.0,36,0.00,FEW,FEW,0.00,WeatherDisplay:10.34,2013-06-29 18:45:00,
2013-06-29 12:50:00,88.7,56.7,30.13,WSW,246,2.0,2.0,34,0.00,FEW,FEW,0.00,WeatherDisplay:10.34,2013-06-29 18:50:00,
2013-06-29 12:55:00,89.1,57.1,30.13,WNW,299,3.0,5.0,34,0.00,FEW,FEW,0.00,WeatherDisplay:10.34,2013-06-29 18:55:00,
2013-06-29 13:00:00,89.0,57.8,30.13,NNW,342,3.0,5.0,35,0.00,FEW,FEW,0.00,WeatherDisplay:10.34,2013-06-29 19:00:00,
2013-06-29 13:05:00,88.8,57.6,30.13,North,360,3.0,5.0,35,0.00,FEW,FEW,0.00,WeatherDisplay:10.34,2013-06-29 19:05:00,
2013-06-29 13:10:00,89.0,56.2,30.12,NNW,339,6.0,8.0,33,0.00,FEW,FEW,0.00,WeatherDisplay:10.34,2013-06-29 19:10:00,
2013-06-29 13:15:00,89.0,57.0,30.12,NE,47,3.0,5.0,34,0.00,FEW,FEW,0.00,WeatherDisplay:10.34,2013-06-29 19:15:00,
2013-06-29 13:20:00,89.3,58.8,30.12,North,355,2.0,5.0,36,0.00,FEW,FEW,0.00,WeatherDisplay:10.34,2013-06-29 19:20:00,
2013-06-29 13:25:00,89.5,57.4,30.12,North,351,8.0,8.0,34,0.00,FEW,FEW,0.00,WeatherDisplay:10.34,2013-06-29 19:25:00,
2013-06-29 13:30:00,89.5,57.4,30.11,NNW,331,9.0,9.0,34,0.00,FEW,FEW,0.00,WeatherDisplay:10.34,2013-06-29 19:30:00,
2013-06-29 13:35:00,89.2,58.0,30.11,NNW,343,7.0,8.0,35,0.00,FEW,FEW,0.00,WeatherDisplay:10.34,2013-06-29 19:35:00,
2013-06-29 13:40:00,89.3,57.3,30.11,NW,324,6.0,6.0,34,0.00,FEW,FEW,0.00,WeatherDisplay:10.34,2013-06-29 19:40:00,
2013-06-29 13:45:00,89.0,55.3,30.11,NNW,348,9.0,9.0,32,0.00,FEW,FEW,0.00,WeatherDisplay:10.34,2013-06-29 19:45:00,
2013-06-29 13:51:00,88.8,57.6,30.10,NNW,342,10.0,10.0,35,0.00,FEW,FEW,0.00,WeatherDisplay:10.34,2013-06-29 19:51:00,
2013-06-29 13:56:00,88.4,57.3,30.10,NNW,333,2.0,7.0,35,0.00,CLR,CLR,0.00,WeatherDisplay:10.34,2013-06-29 19:56:00,
2013-06-29 14:01:00,88.3,56.4,30.10,North,360,6.0,7.0,34,0.00,FEW,FEW,0.00,WeatherDisplay:10.34,2013-06-29 20:01:00,
2013-06-29 14:06:00,89.2,54.6,30.10,NE,45,8.0,8.0,31,0.00,FEW,FEW,0.00,WeatherDisplay:10.34,2013-06-29 20:06:00,
2013-06-29 14:11:00,89.3,56.4,30.09,NNW,342,2.0,3.0,33,0.00,SCT,SCT,0.00,WeatherDisplay:10.34,2013-06-29 20:11:00,
2013-06-29 14:16:00,89.0,56.2,30.09,SE,138,3.0,3.0,33,0.00,BKN,BKN,0.00,WeatherDisplay:10.34,2013-06-29 20:16:00,
2013-06-29 14:21:00,88.9,53.5,30.08,NE,38,6.0,9.0,30,0.00,SCT,SCT,0.00,WeatherDisplay:10.34,2013-06-29 20:21:00,
2013-06-29 14:26:00,89.0,53.5,30.08,NE,48,0.0,1.0,30,0.00,BKN,BKN,0.00,WeatherDisplay:10.34,2013-06-29 20:26:00,
2013-06-29 14:31:00,89.2,55.5,30.08,North,355,4.0,5.0,32,0.00,SCT,SCT,0.00,WeatherDisplay:10.34,2013-06-29 20:31:00,
2013-06-29 14:36:00,89.6,55.8,30.08,NNW,341,5.0,5.0,32,0.00,SCT,SCT,0.00,WeatherDisplay:10.34,2013-06-29 20:36:00,
2013-06-29 14:41:00,90.0,54.4,30.07,NE,35,4.0,5.0,30,0.00,BKN,BKN,0.00,WeatherDisplay:10.34,2013-06-29 20:41:00,
2013-06-29 14:46:00,90.1,52.6,30.07,ENE,78,3.0,5.0,28,0.00,SCT,SCT,0.00,WeatherDisplay:10.34,2013-06-29 20:46:00,
2013-06-29 14:51:00,90.2,53.6,30.07,North,360,5.0,5.0,29,0.00,BKN,BKN,0.00,WeatherDisplay:10.34,2013-06-29 20:51:00,
2013-06-29 14:56:00,90.0,54.4,30.07,NNW,344,3.0,3.0,30,0.00,SCT,SCT,0.00,WeatherDisplay:10.34,2013-06-29 20:56:00,
2013-06-29 15:01:00,90.3,55.6,30.07,NE,42,2.0,2.0,31,0.00,SCT,SCT,0.00,WeatherDisplay:10.34,2013-06-29 21:01:00,
2013-06-29 15:06:00,90.5,56.6,30.06,NW,314,4.0,5.0,32,0.00,SCT,SCT,0.00,WeatherDisplay:10.34,2013-06-29 21:06:00,
2013-06-29 15:11:00,90.5,55.7,30.06,NE,34,4.0,5.0,31,0.00,CLR,CLR,0.00,WeatherDisplay:10.34,2013-06-29 21:11:00,
2013-06-29 15:16:00,90.8,54.2,30.06,NNE,25,4.0,5.0,29,0.00,CLR,CLR,0.00,WeatherDisplay:10.34,2013-06-29 21:16:00,
2013-06-29 15:21:00,91.0,54.3,30.06,WNW,299,2.0,2.0,29,0.00,OVC,OVC,0.00,WeatherDisplay:10.34,2013-06-29 21:21:00,
2013-06-29 15:26:00,91.3,55.5,30.06,WSW,244,4.0,5.0,30,0.00,FEW,FEW,0.00,WeatherDisplay:10.34,2013-06-29 21:26:00,
2013-06-29 15:31:00,91.6,52.9,30.05,North,360,3.0,5.0,27,0.00,FEW,FEW,0.00,WeatherDisplay:10.34,2013-06-29 21:31:00,
2013-06-29 15:36:00,92.0,54.2,30.05,SE,138,2.0,3.0,28,0.00,CLR,CLR,0.00,WeatherDisplay:10.34,2013-06-29 21:36:00,
2013-06-29 15:41:00,92.4,54.6,30.05,North,349,1.0,1.0,28,0.00,SCT,SCT,0.00,WeatherDisplay:10.34,2013-06-29 21:41:00,
2013-06-29 15:46:00,92.5,54.7,30.05,NW,309,2.0,3.0,28,0.00,CLR,CLR,0.00,WeatherDisplay:10.34,2013-06-29 21:46:00,
2013-06-29 15:51:00,92.1,53.3,30.05,NW,318,0.0,2.0,27,0.00,CLR,CLR,0.00,WeatherDisplay:10.34,2013-06-29 21:51:00,
2013-06-29 15:56:00,92.0,54.2,30.05,WSW,249,9.0,10.0,28,0.00,CLR,CLR,0.00,WeatherDisplay:10.34,2013-06-29 21:56:00,
2013-06-29 16:01:00,91.9,53.1,30.05,WNW,296,7.0,9.0,27,0.00,CLR,CLR,0.00,WeatherDisplay:10.34,2013-06-29 22:01:00,
2013-06-29 16:06:00,91.9,51.1,30.05,East,94,10.0,10.0,25,0.00,CLR,CLR,0.00,WeatherDisplay:10.34,2013-06-29 22:06:00,
2013-06-29 16:11:00,92.1,53.3,30.03,NNW,334,5.0,7.0,27,0.00,CLR,CLR,0.00,WeatherDisplay:10.34,2013-06-29 22:11:00,
2013-06-29 16:16:00,91.7,53.0,30.04,NW,313,7.0,8.0,27,0.00,FEW,FEW,0.00,WeatherDisplay:10.34,2013-06-29 22:16:00,
2013-06-29 16:21:00,91.6,51.9,30.03,SSW,213,7.0,7.0,26,0.00,CLR,CLR,0.00,WeatherDisplay:10.34,2013-06-29 22:21:00,
2013-06-29 16:26:00,91.8,54.1,30.03,NW,319,4.0,4.0,28,0.00,SCT,SCT,0.00,WeatherDisplay:10.34,2013-06-29 22:26:00,
2013-06-29 16:31:00,91.7,54.0,30.03,NNW,346,6.0,6.0,28,0.00,SCT,SCT,0.00,WeatherDisplay:10.34,2013-06-29 22:31:00,
2013-06-29 16:36:00,91.5,53.8,30.03,West,259,7.0,10.0,28,0.00,SCT,SCT,0.00,WeatherDisplay:10.34,2013-06-29 22:36:00,
2013-06-29 16:41:00,91.4,53.7,30.03,NNW,337,5.0,5.0,28,0.00,BKN,BKN,0.00,WeatherDisplay:10.34,2013-06-29 22:41:00,
2013-06-29 16:46:00,90.9,55.2,30.03,North,350,6.0,7.0,30,0.00,SCT,SCT,0.00,WeatherDisplay:10.34,2013-06-29 22:46:00,
2013-06-29 16:51:00,90.2,56.4,30.03,NW,311,8.0,9.0,32,0.00,SCT,SCT,0.00,WeatherDisplay:10.34,2013-06-29 22:51:00,
2013-06-29 16:56:00,89.5,56.6,30.02,NW,325,7.0,9.0,33,0.00,SCT,SCT,0.00,WeatherDisplay:10.34,2013-06-29 22:56:00,
2013-06-29 17:01:00,89.0,56.2,30.02,NW,304,7.0,8.0,33,0.00,SCT,SCT,0.00,WeatherDisplay:10.34,2013-06-29 23:01:00,
2013-06-29 17:06:00,87.4,57.9,30.02,NNW,336,21.0,22.0,37,0.00,BKN,BKN,0.00,WeatherDisplay:10.34,2013-06-29 23:06:00,
2013-06-29 17:11:00,85.4,59.0,30.03,NNW,331,9.0,9.0,41,0.00,OVC,OVC,0.00,WeatherDisplay:10.34,2013-06-29 23:11:00,
2013-06-29 17:16:00,85.0,58.0,30.03,NNW,338,3.0,5.0,40,0.00,OVC,OVC,0.00,WeatherDisplay:10.34,2013-06-29 23:16:00,
2013-06-29 17:21:00,85.2,56.0,30.04,NNW,338,4.0,5.0,37,0.00,OVC,OVC,0.00,WeatherDisplay:10.34,2013-06-29 23:21:00,
2013-06-29 17:26:00,85.4,52.2,30.03,SSW,207,2.0,3.0,32,0.00,OVC,OVC,0.00,WeatherDisplay:10.34,2013-06-29 23:26:00,
2013-06-29 17:31:00,85.0,54.3,30.04,NNW,343,11.0,13.0,35,0.00,OVC,OVC,0.00,WeatherDisplay:10.34,2013-06-29 23:31:00,
2013-06-29 17:36:00,84.7,54.8,30.04,North,350,4.0,5.0,36,0.00,OVC,OVC,0.00,WeatherDisplay:10.34,2013-06-29 23:36:00,
2013-06-29 17:41:00,84.6,51.5,30.04,West,273,10.0,14.0,32,0.00,OVC,OVC,0.00,WeatherDisplay:10.34,2013-06-29 23:41:00,
2013-06-29 17:46:00,83.6,53.1,30.06,NW,323,6.0,7.0,35,0.00,OVC,OVC,0.00,WeatherDisplay:10.34,2013-06-29 23:46:00,
2013-06-29 17:51:00,83.0,51.7,30.06,WNW,292,7.0,9.0,34,0.00,OVC,OVC,0.00,WeatherDisplay:10.34,2013-06-29 23:51:00,
2013-06-29 17:56:00,82.9,50.8,30.06,NW,310,8.0,13.0,33,0.00,OVC,OVC,0.00,WeatherDisplay:10.34,2013-06-29 23:56:00,
2013-06-29 18:01:00,83.0,50.1,30.06,NW,324,13.0,13.0,32,0.00,OVC,OVC,0.00,WeatherDisplay:10.34,2013-06-30 00:01:00,
2013-06-29 18:06:00,83.0,50.1,30.06,NNW,331,13.0,14.0,32,0.00,OVC,OVC,0.00,WeatherDisplay:10.34,2013-06-30 00:06:00,
2013-06-29 18:11:00,83.0,50.1,30.06,NNW,336,15.0,21.0,32,0.00,OVC,OVC,0.00,WeatherDisplay:10.34,2013-06-30 00:11:00,
2013-06-29 18:16:00,82.9,50.0,30.06,NW,312,13.0,16.0,32,0.00,OVC,OVC,0.00,WeatherDisplay:10.34,2013-06-30 00:16:00,
2013-06-29 18:21:00,82.7,50.7,30.07,WSW,257,12.0,13.0,33,0.00,OVC,OVC,0.00,WeatherDisplay:10.34,2013-06-30 00:21:00,
2013-06-29 18:26:00,82.5,50.5,30.07,WNW,302,11.0,17.0,33,0.00,OVC,OVC,0.00,WeatherDisplay:10.34,2013-06-30 00:26:00,
2013-06-29 18:31:00,82.4,50.4,30.07,WNW,288,12.0,17.0,33,0.00,OVC,OVC,0.00,WeatherDisplay:10.34,2013-06-30 00:31:00,
2013-06-29 18:36:00,82.3,50.3,30.07,West,265,15.0,15.0,33,0.00,OVC,OVC,0.00,WeatherDisplay:10.34,2013-06-30 00:36:00,
2013-06-29 18:41:00,82.2,50.2,30.07,SW,230,9.0,10.0,33,0.00,OVC,OVC,0.00,WeatherDisplay:10.34,2013-06-30 00:41:00,
2013-06-29 18:46:00,82.2,50.2,30.06,SW,215,0.0,1.0,33,0.00,OVC,OVC,0.00,WeatherDisplay:10.34,2013-06-30 00:46:00,
2013-06-29 18:51:00,81.9,51.6,30.06,West,266,5.0,9.0,35,0.00,BKN,BKN,0.00,WeatherDisplay:10.34,2013-06-30 00:51:00,
2013-06-29 18:56:00,81.8,52.2,30.06,NW,317,0.0,1.0,36,0.00,BKN,BKN,0.00,WeatherDisplay:10.34,2013-06-30 00:56:00,
2013-06-29 19:01:00,81.8,51.5,30.06,NW,313,10.0,10.0,35,0.00,BKN,BKN,0.00,WeatherDisplay:10.34,2013-06-30 01:01:00,
2013-06-29 19:06:00,81.4,52.6,30.06,NNW,348,9.0,12.0,37,0.00,BKN,BKN,0.00,WeatherDisplay:10.34,2013-06-30 01:06:00,
2013-06-29 19:11:00,80.3,53.1,30.04,North,355,17.0,17.0,39,0.00,BKN,BKN,0.00,WeatherDisplay:10.34,2013-06-30 01:11:00,
2013-06-29 19:16:00,79.4,51.6,30.04,NNW,347,14.0,14.0,38,0.00,BKN,BKN,0.00,WeatherDisplay:10.34,2013-06-30 01:16:00,
2013-06-29 19:21:00,78.9,51.1,30.05,NNW,339,8.0,9.0,38,0.00,BKN,BKN,0.00,WeatherDisplay:10.34,2013-06-30 01:21:00,
2013-06-29 19:26:00,78.8,52.4,30.05,NNW,341,7.0,7.0,40,0.00,BKN,BKN,0.00,WeatherDisplay:10.34,2013-06-30 01:26:00,
2013-06-29 19:31:00,78.7,52.3,30.05,NNW,342,4.0,4.0,40,0.00,BKN,BKN,0.00,WeatherDisplay:10.34,2013-06-30 01:31:00,
2013-06-29 19:36:00,78.7,53.0,30.05,NNW,337,1.0,1.0,41,0.00,BKN,BKN,0.00,WeatherDisplay:10.34,2013-06-30 01:36:00,
2013-06-29 19:41:00,78.7,52.3,30.05,NNW,337,1.0,2.0,40,0.00,BKN,BKN,0.00,WeatherDisplay:10.34,2013-06-30 01:41:00,
2013-06-29 19:46:00,78.7,52.3,30.05,NNW,337,0.0,0.0,40,0.00,BKN,BKN,0.00,WeatherDisplay:10.34,2013-06-30 01:46:00,
2013-06-29 19:51:00,78.7,53.0,30.05,NNW,337,2.0,2.0,41,0.00,BKN,BKN,0.00,WeatherDisplay:10.34,2013-06-30 01:51:00,
2013-06-29 19:56:00,78.7,52.3,30.05,NNW,337,1.0,1.0,40,0.00,BKN,BKN,0.00,WeatherDisplay:10.34,2013-06-30 01:56:00,
2013-06-29 20:01:00,78.7,52.3,30.05,NNW,337,0.0,1.0,40,0.00,OVC,OVC,0.00,WeatherDisplay:10.34,2013-06-30 02:01:00,
2013-06-29 20:06:00,78.7,52.3,30.05,WSW,240,6.0,7.0,40,0.00,OVC,OVC,0.00,WeatherDisplay:10.34,2013-06-30 02:06:00,
2013-06-29 20:11:00,78.5,54.8,30.07,WSW,238,6.0,7.0,44,0.00,OVC,OVC,0.00,WeatherDisplay:10.34,2013-06-30 02:11:00,
2013-06-29 20:16:00,78.1,53.8,30.08,WSW,247,6.0,7.0,43,0.00,OVC,OVC,0.00,WeatherDisplay:10.34,2013-06-30 02:16:00,
2013-06-29 20:21:00,77.8,52.2,30.09,West,279,12.0,13.0,41,0.00,OVC,OVC,0.00,WeatherDisplay:10.34,2013-06-30 02:21:00,
2013-06-29 20:26:00,77.9,50.9,30.09,WSW,250,8.0,13.0,39,0.00,OVC,OVC,0.00,WeatherDisplay:10.34,2013-06-30 02:26:00,
2013-06-29 20:31:00,78.2,51.9,30.10,WSW,248,11.0,14.0,40,0.00,OVC,OVC,0.00,WeatherDisplay:10.34,2013-06-30 02:31:00,
2013-06-29 20:36:00,78.3,52.0,30.10,WSW,240,7.0,8.0,40,0.00,OVC,OVC,0.00,WeatherDisplay:10.34,2013-06-30 02:36:00,
2013-06-29 20:41:00,78.3,52.0,30.11,SW,227,9.0,10.0,40,0.00,OVC,OVC,0.00,WeatherDisplay:10.34,2013-06-30 02:41:00,
2013-06-29 20:46:00,78.3,52.7,30.11,WSW,237,3.0,7.0,41,0.00,OVC,OVC,0.00,WeatherDisplay:10.34,2013-06-30 02:46:00,
2013-06-29 20:51:00,78.1,52.5,30.11,West,261,3.0,5.0,41,0.00,OVC,OVC,0.00,WeatherDisplay:10.34,2013-06-30 02:51:00,
2013-06-29 20:56:00,78.0,53.0,30.11,WNW,283,5.0,8.0,42,0.00,OVC,OVC,0.00,WeatherDisplay:10.34,2013-06-30 02:56:00,
2013-06-29 21:01:00,77.6,52.7,30.11,WNW,283,10.0,15.0,42,0.00,OVC,OVC,0.00,WeatherDisplay:10.34,2013-06-30 03:01:00,
2013-06-29 21:07:00,75.8,54.7,30.11,North,10,22.0,26.0,48,0.00,OVC,OVC,0.00,WeatherDisplay:10.34,2013-06-30 03:07:00,
2013-06-29 21:12:00,73.4,55.7,30.14,WNW,290,20.0,22.0,54,0.00,OVC,OVC,0.00,WeatherDisplay:10.34,2013-06-30 03:12:00,
2013-06-29 21:17:00,71.3,56.2,30.14,West,271,15.0,21.0,59,0.00,OVC,OVC,0.00,WeatherDisplay:10.34,2013-06-30 03:17:00,
2013-06-29 21:22:00,70.5,56.4,30.15,North,355,14.0,16.0,61,0.00,OVC,OVC,0.00,WeatherDisplay:10.34,2013-06-30 03:22:00,
2013-06-29 21:27:00,69.8,56.2,30.15,NW,317,17.0,28.0,62,0.00,OVC,OVC,0.00,WeatherDisplay:10.34,2013-06-30 03:27:00,
2013-06-29 21:32:00,69.2,56.5,30.16,NNW,333,14.0,21.0,64,0.00,OVC,OVC,0.00,WeatherDisplay:10.34,2013-06-30 03:32:00,
2013-06-29 21:37:00,68.4,56.6,30.16,West,274,14.0,20.0,66,0.00,OVC,OVC,0.00,WeatherDisplay:10.34,2013-06-30 03:37:00,
2013-06-29 21:42:00,67.2,56.7,30.17,West,271,18.0,21.0,69,0.00,OVC,OVC,0.00,WeatherDisplay:10.34,2013-06-30 03:42:00,
2013-06-29 21:47:00,66.4,56.7,30.17,WNW,283,15.0,20.0,71,0.00,OVC,OVC,0.00,WeatherDisplay:10.34,2013-06-30 03:47:00,
2013-06-29 21:52:00,66.0,56.7,30.17,NW,304,12.0,16.0,72,0.00,OVC,OVC,0.00,WeatherDisplay:10.34,2013-06-30 03:52:00,
2013-06-29 21:57:00,65.6,56.7,30.17,West,279,10.0,13.0,73,0.00,OVC,OVC,0.00,WeatherDisplay:10.34,2013-06-30 03:57:00,
2013-06-29 22:01:00,65.4,56.5,30.17,WNW,296,24.0,24.0,73,0.00,CLR,CLR,0.00,WeatherDisplay:10.34,2013-06-30 04:01:00,
2013-06-29 22:02:00,65.3,56.4,30.17,NW,315,14.0,16.0,73,0.00,CLR,CLR,0.00,WeatherDisplay:10.34,2013-06-30 04:02:00,
2013-06-29 22:06:00,65.2,56.7,30.17,NNW,327,13.0,13.0,74,0.00,CLR,CLR,0.00,WeatherDisplay:10.34,2013-06-30 04:06:00,
2013-06-29 22:11:00,65.1,56.6,30.18,WSW,254,10.0,10.0,74,0.00,CLR,CLR,0.00,WeatherDisplay:10.34,2013-06-30 04:11:00,
2013-06-29 22:16:00,65.0,56.5,30.18,WNW,298,15.0,17.0,74,0.00,CLR,CLR,0.00,WeatherDisplay:10.34,2013-06-30 04:16:00,
2013-06-29 22:21:00,64.9,56.8,30.19,WNW,299,10.0,13.0,75,0.00,CLR,CLR,0.00,WeatherDisplay:10.34,2013-06-30 04:21:00,
2013-06-29 22:26:00,64.8,56.7,30.19,NNW,341,9.0,9.0,75,0.00,CLR,CLR,0.00,WeatherDisplay:10.34,2013-06-30 04:26:00,
2013-06-29 22:31:00,64.8,56.7,30.19,WSW,252,6.0,14.0,75,0.00,CLR,CLR,0.00,WeatherDisplay:10.34,2013-06-30 04:31:00,
2013-06-29 22:36:00,64.7,56.2,30.19,West,273,9.0,17.0,74,0.00,CLR,CLR,0.00,WeatherDisplay:10.34,2013-06-30 04:36:00,
2013-06-29 22:41:00,64.6,56.1,30.18,WNW,299,11.0,15.0,74,0.00,CLR,CLR,0.00,WeatherDisplay:10.34,2013-06-30 04:41:00,
2013-06-29 22:46:00,64.4,56.3,30.18,West,276,10.0,12.0,75,0.00,CLR,CLR,0.00,WeatherDisplay:10.34,2013-06-30 04:46:00,
2013-06-29 22:51:00,64.3,55.8,30.18,WNW,290,7.0,13.0,74,0.00,CLR,CLR,0.00,WeatherDisplay:10.34,2013-06-30 04:51:00,
2013-06-29 22:56:00,64.2,55.7,30.18,WNW,291,12.0,16.0,74,0.00,CLR,CLR,0.00,WeatherDisplay:10.34,2013-06-30 04:56:00,
2013-06-29 23:01:00,64.2,55.7,30.18,WNW,288,7.0,8.0,74,0.00,CLR,CLR,0.00,WeatherDisplay:10.34,2013-06-30 05:01:00,
2013-06-29 23:06:00,64.2,55.7,30.18,NW,307,12.0,14.0,74,0.00,CLR,CLR,0.00,WeatherDisplay:10.34,2013-06-30 05:06:00,
2013-06-29 23:11:00,64.3,55.8,30.17,West,263,3.0,5.0,74,0.00,CLR,CLR,0.00,WeatherDisplay:10.34,2013-06-30 05:11:00,
2013-06-29 23:16:00,64.3,55.5,30.17,WSW,252,6.0,7.0,73,0.00,CLR,CLR,0.00,WeatherDisplay:10.34,2013-06-30 05:16:00,
2013-06-29 23:21:00,64.4,55.6,30.17,SSW,211,10.0,10.0,73,0.00,CLR,CLR,0.00,WeatherDisplay:10.34,2013-06-30 05:21:00,
2013-06-29 23:26:00,64.7,55.8,30.17,SW,232,9.0,9.0,73,0.00,CLR,CLR,0.00,WeatherDisplay:10.34,2013-06-30 05:26:00,
2013-06-29 23:31:00,64.8,55.6,30.16,West,272,5.0,7.0,72,0.00,CLR,CLR,0.00,WeatherDisplay:10.34,2013-06-30 05:31:00,
2013-06-29 23:36:00,64.8,55.2,30.16,SW,218,5.0,7.0,71,0.00,CLR,CLR,0.00,WeatherDisplay:10.34,2013-06-30 05:36:00,
2013-06-29 23:41:00,65.0,55.4,30.16,South,191,9.0,9.0,71,0.00,CLR,CLR,0.00,WeatherDisplay:10.34,2013-06-30 05:41:00,
2013-06-29 23:46:00,64.8,55.9,30.16,SW,214,12.0,12.0,73,0.00,CLR,CLR,0.00,WeatherDisplay:10.34,2013-06-30 05:46:00,
2013-06-29 23:51:00,64.7,55.8,30.15,WSW,249,7.0,8.0,73,0.00,CLR,CLR,0.00,WeatherDisplay:10.34,2013-06-30 05:51:00,
2013-06-29 23:56:00,64.5,55.7,30.15,SW,234,6.0,8.0,73,0.00,CLR,CLR,0.00,WeatherDisplay:10.34,2013-06-30 05:56:00,